KGRB

Green Bay-Austin Straubel International Airport

Green Bay, Wisconsin, USA
METAR KGRB 201453Z 00000KT 10SM OVC005 00/M02 A2982 RMK AO2 UPE02 SLP109 P0000 60020 I1001 I3008 T00001017 55009
Observed Flight Rules
Feb-20 @ 14:53 UTC (3 hours ago) Instrument Flight Rules
Wind Visibility Clouds
Calm 10 miles
  • Overcast at 500' AGL
Temperatures Readings Precipitation
Current 0°C / 32°F
Dewpoint -2°C / 28°F
Humidity 87%
Altimeter 29.82" Hg
Pressure 1010.9 hPa
Elevation 208
Current Rain 0.005
METAR KGRB 201453Z 00000KT 10SM OVC005 00/M02 A2982 RMK AO2 UPE02 SLP109 P0000 60020 I1001 I3008 T00001017 55009
Observed Flight Rules
Feb-20 @ 14:53 UTC
(3 hours ago)
IFR
Wind Visibility
Calm 10 miles
Clouds
  • Overcast at 500' AGL
Temperature Dewpoint
0°C / 32°F -2°C / 28°F
Humidity Altimeter Pressure
87% 29.82" Hg 1010.9 hPa
Current Rain
0.005